Time;durP1;ratioP1;P1;durP2;ratioP2;P2;SDS_P1;SDS_P2;PMS_P1;PMS_P2;Temp;Humidity;BMP_temperature;BMP_pressure;BME280_temperature;BME280_humidity;BME280_pressure;Samples;Min_cycle;Max_cycle;Signal;HPM_P1;HPM_P2
2023/02/21 02:14:01;;;;;;;;;;;;;;;8.97;82.60;99682.42;106584;1277;22511;-59
2023/02/21 02:16:36;;;;;;;;;;;;;;;8.94;82.99;99676.66;106490;1277;27234;-58
2023/02/21 02:19:25;;;;;;;;;;;;;;;8.92;82.90;99672.02;106632;1277;22528;-58
2023/02/21 02:22:19;;;;;;;;;;;;;;;8.90;83.02;99677.20;106515;1277;22511;-59
2023/02/21 02:25:01;;;;;;;;;;;;;;;8.87;83.20;99663.45;106606;1277;22527;-58
2023/02/21 02:27:50;;;;;;;;;;;;;;;8.86;83.29;99661.80;106593;1270;25336;-58
2023/02/21 02:30:38;;;;;;;;;;;;;;;8.84;83.55;99665.92;106575;1273;24228;-58
2023/02/21 02:33:22;;;;;;;;;;;;;;;8.84;83.43;99670.02;106570;1276;24242;-59
2023/02/21 02:35:54;;;;;;;;;;;;;;;8.82;83.67;99669.00;106515;1273;22792;-58
2023/02/21 02:38:26;;;;;;;;;;;;;;;8.80;83.84;99663.12;106568;1270;22507;-58
2023/02/21 02:40:59;;;;;;;;;;;;;;;8.80;84.18;99663.55;106579;1273;25512;-58
2023/02/21 02:43:31;;;;;;;;;;;;;;;8.79;84.16;99663.85;106705;1263;25367;-58
2023/02/21 02:46:03;;;;;;;;;;;;;;;8.79;84.15;99661.46;106767;1277;25367;-57
2023/02/21 02:48:35;;;;;;;;;;;;;;;8.78;84.25;99668.03;106519;1277;25470;-58
2023/02/21 02:51:07;;;;;;;;;;;;;;;8.77;84.58;99665.19;106579;1262;22507;-56
2023/02/21 02:53:36;;;;;;;;;;;;;;;8.78;84.41;99669.55;106590;1271;22507;-61
2023/02/21 02:56:08;;;;;;;;;;;;;;;8.77;84.74;99661.23;106570;1273;22527;-59
2023/02/21 02:58:39;;;;;;;;;;;;;;;8.76;84.45;99669.48;106590;1262;22752;-59
2023/02/21 03:01:19;;;;;;;;;;;;;;;8.76;84.56;99676.70;106546;1270;23144;-57
2023/02/21 03:04:08;;;;;;;;;;;;;;;8.76;84.62;99672.05;106535;1277;22504;-58
2023/02/21 03:06:43;;;;;;;;;;;;;;;8.76;84.66;99664.96;106594;1277;24272;-59
2023/02/21 03:09:17;;;;;;;;;;;;;;;8.75;84.89;99668.04;106563;1262;24283;-58
2023/02/21 03:11:51;;;;;;;;;;;;;;;8.74;85.05;99670.62;106492;1269;22518;-57
2023/02/21 03:14:22;;;;;;;;;;;;;;;8.74;85.12;99675.15;106608;1270;24413;-56
2023/02/21 03:16:54;;;;;;;;;;;;;;;8.74;85.24;99666.19;106558;1262;23378;-59
2023/02/21 03:19:25;;;;;;;;;;;;;;;8.74;85.32;99669.60;106497;1277;22560;-59
2023/02/21 03:21:57;;;;;;;;;;;;;;;8.74;85.52;99662.61;106554;1277;22446;-58
2023/02/21 03:24:27;;;;;;;;;;;;;;;8.74;85.45;99664.48;106809;1266;25398;-58
2023/02/21 03:27:00;;;;;;;;;;;;;;;8.74;85.24;99666.55;106533;1277;22528;-57
2023/02/21 03:29:30;;;;;;;;;;;;;;;8.75;85.74;99674.46;106557;1262;22588;-59
2023/02/21 03:34:38;;;;;;;;;;;;;;;8.76;85.57;99668.20;106491;1277;22541;-58
2023/02/21 03:37:09;;;;;;;;;;;;;;;8.77;85.64;99662.91;106665;1270;24318;-58
2023/02/21 03:39:39;;;;;;;;;;;;;;;8.78;85.86;99655.54;106581;1277;22507;-58
2023/02/21 03:42:08;;;;;;;;;;;;;;;8.79;85.84;99661.77;106417;1270;22521;-58
2023/02/21 03:44:37;;;;;;;;;;;;;;;8.79;85.68;99659.55;106547;1262;25343;-58
2023/02/21 03:47:06;;;;;;;;;;;;;;;8.78;85.86;99652.98;106659;1276;22562;-56
2023/02/21 03:49:36;;;;;;;;;;;;;;;8.79;85.93;99656.61;106599;1276;22514;-59
2023/02/21 03:52:05;;;;;;;;;;;;;;;8.79;86.05;99656.36;106669;1271;22520;-59
2023/02/21 03:54:35;;;;;;;;;;;;;;;8.80;85.98;99654.40;106643;1276;22507;-57
2023/02/21 03:57:04;;;;;;;;;;;;;;;8.79;86.05;99652.31;106533;1270;22577;-58
2023/02/21 03:59:33;;;;;;;;;;;;;;;8.78;86.39;99656.65;106538;1270;25273;-58
2023/02/21 04:02:03;;;;;;;;;;;;;;;8.78;86.54;99657.20;106701;1273;22518;-56
2023/02/21 04:04:32;;;;;;;;;;;;;;;8.77;86.41;99659.21;106595;1262;22520;-58
2023/02/21 04:07:02;;;;;;;;;;;;;;;8.77;86.64;99651.27;106560;1277;24259;-59
2023/02/21 04:09:31;;;;;;;;;;;;;;;8.76;86.77;99648.48;106522;1277;22504;-57
2023/02/21 04:12:00;;;;;;;;;;;;;;;8.76;86.59;99650.55;106472;1270;25409;-58
2023/02/21 04:14:29;;;;;;;;;;;;;;;8.76;86.60;99653.33;106493;1277;25367;-55
2023/02/21 04:16:59;;;;;;;;;;;;;;;8.76;87.02;99653.73;106544;1277;25339;-56
2023/02/21 04:19:28;;;;;;;;;;;;;;;8.76;87.14;99659.20;106537;1265;23247;-58
2023/02/21 04:21:58;;;;;;;;;;;;;;;8.78;87.16;99656.19;106625;1277;22527;-57
2023/02/21 04:24:28;;;;;;;;;;;;;;;8.78;86.92;99652.35;106560;1257;24264;-57
2023/02/21 04:26:57;;;;;;;;;;;;;;;8.78;86.97;99652.66;106515;1277;22637;-57
2023/02/21 04:29:27;;;;;;;;;;;;;;;8.79;86.99;99652.72;106564;1277;25324;-57
2023/02/21 04:31:56;;;;;;;;;;;;;;;8.80;87.10;99654.70;106567;1277;22795;-58
2023/02/21 04:34:25;;;;;;;;;;;;;;;8.81;87.15;99651.09;106769;1277;22513;-57
2023/02/21 04:36:54;;;;;;;;;;;;;;;8.83;87.31;99649.96;106556;1277;26529;-58
2023/02/21 04:39:24;;;;;;;;;;;;;;;8.83;86.99;99649.36;106486;1277;25330;-58
2023/02/21 04:41:53;;;;;;;;;;;;;;;8.84;87.02;99644.36;106559;1277;25638;-58
2023/02/21 04:44:22;;;;;;;;;;;;;;;8.86;87.20;99650.66;106700;1265;24386;-56
2023/02/21 04:46:51;;;;;;;;;;;;;;;8.87;87.04;99651.70;106622;1277;22510;-56
2023/02/21 04:49:23;;;;;;;;;;;;;;;8.90;87.04;99650.89;106436;1270;22507;-60
2023/02/21 04:51:53;;;;;;;;;;;;;;;8.91;86.95;99653.23;106586;1277;23180;-58
2023/02/21 04:54:22;;;;;;;;;;;;;;;8.92;86.94;99646.55;106552;1276;22516;-59
2023/02/21 04:56:52;;;;;;;;;;;;;;;8.93;86.80;99645.73;106522;1262;22654;-58
2023/02/21 04:59:21;;;;;;;;;;;;;;;8.93;87.01;99644.96;106507;1268;25532;-58
2023/02/21 05:01:50;;;;;;;;;;;;;;;8.94;87.06;99645.79;106511;1271;22976;-58
2023/02/21 05:04:20;;;;;;;;;;;;;;;8.95;86.96;99641.64;106652;1262;25719;-57
2023/02/21 05:06:49;;;;;;;;;;;;;;;8.94;87.25;99652.97;106574;1276;22545;-58
2023/02/21 05:09:18;;;;;;;;;;;;;;;8.93;87.70;99656.29;106549;1262;22523;-57
2023/02/21 05:11:48;;;;;;;;;;;;;;;8.90;87.77;99655.80;106496;1276;22504;-58
2023/02/21 05:14:17;;;;;;;;;;;;;;;8.87;87.94;99654.47;106674;1271;22508;-56
2023/02/21 05:16:47;;;;;;;;;;;;;;;8.84;88.40;99652.96;106543;1273;25230;-57
2023/02/21 05:19:26;;;;;;;;;;;;;;;8.80;88.47;99652.94;106497;1270;22635;-65
2023/02/21 05:21:57;;;;;;;;;;;;;;;8.77;88.90;99650.35;106592;1272;24565;-58
2023/02/21 05:24:27;;;;;;;;;;;;;;;8.72;89.18;99647.50;106499;1262;25581;-63
2023/02/21 05:26:57;;;;;;;;;;;;;;;8.68;89.98;99653.77;106495;1262;22601;-59
2023/02/21 05:29:27;;;;;;;;;;;;;;;8.65;89.92;99651.89;108503;1271;24206;-57
2023/02/21 05:31:56;;;;;;;;;;;;;;;8.62;90.08;99657.19;106430;1262;25354;-58
2023/02/21 05:34:25;;;;;;;;;;;;;;;8.59;90.59;99655.13;106519;1262;24509;-57
2023/02/21 05:36:54;;;;;;;;;;;;;;;8.57;90.43;99648.36;106586;1262;24275;-58
2023/02/21 05:39:23;;;;;;;;;;;;;;;8.55;90.68;99646.23;106649;1271;25424;-56
2023/02/21 05:41:53;;;;;;;;;;;;;;;8.54;90.67;99648.90;106780;1272;22526;-59
2023/02/21 05:44:22;;;;;;;;;;;;;;;8.53;90.60;99650.14;106488;1257;24278;-59
2023/02/21 05:46:52;;;;;;;;;;;;;;;8.53;90.86;99643.72;106540;1277;22505;-60
2023/02/21 05:49:21;;;;;;;;;;;;;;;8.54;90.82;99646.02;106524;1270;24782;-59
2023/02/21 05:51:50;;;;;;;;;;;;;;;8.56;90.57;99649.45;106619;1276;24262;-57
2023/02/21 05:54:20;;;;;;;;;;;;;;;8.58;90.68;99648.71;106698;1276;22459;-59
2023/02/21 05:56:51;;;;;;;;;;;;;;;8.60;90.85;99649.16;106557;1273;25259;-59
2023/02/21 05:59:21;;;;;;;;;;;;;;;8.62;90.94;99654.84;106622;1271;25427;-58
2023/02/21 06:01:50;;;;;;;;;;;;;;;8.63;90.68;99661.20;106616;1265;22515;-60
2023/02/21 06:04:20;;;;;;;;;;;;;;;8.65;90.32;99662.96;106486;1262;24248;-58
2023/02/21 06:06:49;;;;;;;;;;;;;;;8.66;90.40;99673.05;106497;1277;24279;-60
2023/02/21 06:09:19;;;;;;;;;;;;;;;8.69;90.43;99674.25;106545;1262;24279;-59
2023/02/21 06:11:48;;;;;;;;;;;;;;;8.70;90.40;99667.91;106665;1262;22509;-59
2023/02/21 06:14:19;;;;;;;;;;;;;;;8.71;90.19;99671.42;106564;1271;24407;-59
2023/02/21 06:16:48;;;;;;;;;;;;;;;8.73;90.27;99671.34;106896;1266;25350;-60
2023/02/21 06:19:18;;;;;;;;;;;;;;;8.74;90.28;99679.61;106506;1276;23052;-58
2023/02/21 06:21:48;;;;;;;;;;;;;;;8.75;90.15;99686.45;106682;1277;22505;-63
2023/02/21 06:24:17;;;;;;;;;;;;;;;8.77;90.41;99692.91;106604;1271;24283;-59
2023/02/21 06:26:47;;;;;;;;;;;;;;;8.78;90.69;99695.40;107861;1271;23178;-56
2023/02/21 06:29:16;;;;;;;;;;;;;;;8.78;90.64;99696.73;106535;1275;22510;-60
2023/02/21 06:31:45;;;;;;;;;;;;;;;8.78;90.78;99700.43;106592;1273;22523;-59
2023/02/21 06:34:15;;;;;;;;;;;;;;;8.79;90.85;99701.14;106557;1277;24275;-59
2023/02/21 06:36:45;;;;;;;;;;;;;;;8.79;91.19;99714.19;106631;1277;22507;-59
2023/02/21 06:39:14;;;;;;;;;;;;;;;8.78;91.01;99717.08;106552;1262;22581;-59
2023/02/21 06:41:43;;;;;;;;;;;;;;;8.78;91.16;99718.34;106614;1277;24335;-60
2023/02/21 06:44:13;;;;;;;;;;;;;;;8.79;91.53;99718.86;106588;1262;22517;-60
2023/02/21 06:46:43;;;;;;;;;;;;;;;8.79;91.47;99720.98;106589;1274;22511;-58
2023/02/21 06:49:13;;;;;;;;;;;;;;;8.80;91.38;99727.96;106588;1277;23573;-58
2023/02/21 06:51:42;;;;;;;;;;;;;;;8.80;91.77;99726.52;106846;1271;25107;-56
2023/02/21 06:54:12;;;;;;;;;;;;;;;8.81;91.69;99727.59;106609;1277;24242;-58
2023/02/21 06:56:43;;;;;;;;;;;;;;;8.81;91.73;99732.31;106578;1277;25321;-59
2023/02/21 06:59:13;;;;;;;;;;;;;;;8.83;91.72;99729.86;106626;1274;22519;-59
2023/02/21 07:01:43;;;;;;;;;;;;;;;8.83;91.78;99728.41;106527;1262;23018;-59
2023/02/21 07:04:13;;;;;;;;;;;;;;;8.84;91.73;99724.46;106629;1270;22655;-59
2023/02/21 07:06:42;;;;;;;;;;;;;;;8.85;91.74;99733.48;106638;1277;22507;-58
2023/02/21 07:09:12;;;;;;;;;;;;;;;8.86;91.76;99735.73;106528;1271;22516;-58
2023/02/21 07:11:41;;;;;;;;;;;;;;;8.88;91.80;99734.30;106622;1273;22515;-60
2023/02/21 07:14:11;;;;;;;;;;;;;;;8.89;91.87;99732.70;106629;1277;25360;-58
2023/02/21 07:16:40;;;;;;;;;;;;;;;8.91;91.96;99740.02;106711;1277;24206;-59
2023/02/21 07:19:14;;;;;;;;;;;;;;;8.92;91.82;99746.83;106715;1262;22493;-58
2023/02/21 07:21:44;;;;;;;;;;;;;;;8.95;91.70;99758.96;106728;1276;22560;-59
2023/02/21 07:24:13;;;;;;;;;;;;;;;8.96;91.60;99760.66;106532;1271;22530;-57
2023/02/21 07:26:43;;;;;;;;;;;;;;;8.98;91.51;99766.36;106682;1277;24238;-58
2023/02/21 07:29:12;;;;;;;;;;;;;;;9.01;91.50;99766.83;106631;1271;23025;-56
2023/02/21 07:31:41;;;;;;;;;;;;;;;9.05;91.41;99765.18;106567;1272;22507;-60
2023/02/21 07:34:12;;;;;;;;;;;;;;;9.07;91.44;99760.20;106719;1262;23130;-59
2023/02/21 07:36:41;;;;;;;;;;;;;;;9.11;91.42;99763.45;106829;1269;22765;-60
2023/02/21 07:39:11;;;;;;;;;;;;;;;9.14;91.23;99766.29;106648;1270;22501;-60
2023/02/21 07:41:40;;;;;;;;;;;;;;;9.18;91.04;99772.42;106622;1277;25243;-60
2023/02/21 07:44:10;;;;;;;;;;;;;;;9.20;91.15;99773.59;106644;1273;25364;-58
2023/02/21 07:46:41;;;;;;;;;;;;;;;9.21;91.47;99782.61;106586;1277;22574;-59
2023/02/21 07:49:10;;;;;;;;;;;;;;;9.19;91.95;99780.14;106611;1277;24404;-59
2023/02/21 07:51:40;;;;;;;;;;;;;;;9.16;92.10;99783.73;106642;1277;22564;-58
2023/02/21 07:54:09;;;;;;;;;;;;;;;9.13;92.29;99787.58;106604;1274;22535;-59
2023/02/21 07:56:42;;;;;;;;;;;;;;;9.11;92.43;99784.86;106625;1262;22524;-57
2023/02/21 07:59:11;;;;;;;;;;;;;;;9.10;92.34;99791.67;106733;1262;22522;-59
2023/02/21 08:01:41;;;;;;;;;;;;;;;9.10;92.12;99792.05;106587;1272;22507;-57
2023/02/21 08:04:10;;;;;;;;;;;;;;;9.10;92.19;99789.26;106781;1262;24279;-58
2023/02/21 08:06:40;;;;;;;;;;;;;;;9.11;92.13;99798.58;106688;1274;22517;-60
2023/02/21 08:09:09;;;;;;;;;;;;;;;9.12;92.17;99787.98;106732;1273;22527;-59
2023/02/21 08:11:39;;;;;;;;;;;;;;;9.12;92.23;99799.10;106871;1273;22510;-58
2023/02/21 08:14:08;;;;;;;;;;;;;;;9.13;91.94;99801.31;106918;1274;22501;-58
2023/02/21 08:16:38;;;;;;;;;;;;;;;9.15;92.15;99799.63;106897;1277;22656;-61
2023/02/21 08:19:08;;;;;;;;;;;;;;;9.18;91.88;99799.96;106852;1276;22469;-59
2023/02/21 08:21:38;;;;;;;;;;;;;;;9.20;91.74;99795.86;106921;1272;22497;-60
2023/02/21 08:24:07;;;;;;;;;;;;;;;9.23;91.86;99797.48;106883;1277;22517;-60
2023/02/21 08:26:36;;;;;;;;;;;;;;;9.25;91.84;99799.10;106823;1277;25424;-59
2023/02/21 08:29:05;;;;;;;;;;;;;;;9.29;91.69;99801.93;106816;1274;25338;-60
2023/02/21 08:31:36;;;;;;;;;;;;;;;9.33;91.56;99801.39;106839;1275;22508;-59
2023/02/21 08:34:06;;;;;;;;;;;;;;;9.35;91.46;99803.20;106900;1262;22515;-61
2023/02/21 08:36:37;;;;;;;;;;;;;;;9.39;91.57;99803.27;106915;1277;25288;-62
2023/02/21 08:39:07;;;;;;;;;;;;;;;9.42;91.65;99807.23;106672;1277;22505;-59
2023/02/21 08:41:37;;;;;;;;;;;;;;;9.44;91.97;99805.90;106657;1277;22508;-61
2023/02/21 08:44:07;;;;;;;;;;;;;;;9.43;92.50;99813.13;106660;1268;24216;-58
2023/02/21 08:46:38;;;;;;;;;;;;;;;9.40;92.79;99814.59;106741;1265;22642;-59
2023/02/21 08:49:08;;;;;;;;;;;;;;;9.36;92.97;99805.90;106580;1273;22974;-57
2023/02/21 08:51:38;;;;;;;;;;;;;;;9.32;93.74;99805.59;106621;1277;22508;-59
2023/02/21 08:54:09;;;;;;;;;;;;;;;9.30;94.00;99807.38;102571;1275;5407519;-59
2023/02/21 08:56:38;;;;;;;;;;;;;;;9.28;93.93;99812.77;106589;1268;24382;-57
2023/02/21 08:59:08;;;;;;;;;;;;;;;9.31;93.86;99810.48;106687;1277;22504;-60
2023/02/21 09:01:37;;;;;;;;;;;;;;;9.34;93.83;99808.06;106637;1273;22513;-59
2023/02/21 09:04:07;;;;;;;;;;;;;;;9.42;93.97;99802.30;106688;1271;25600;-59
2023/02/21 09:06:36;;;;;;;;;;;;;;;9.53;93.75;99807.26;106563;1277;22524;-59
2023/02/21 09:09:06;;;;;;;;;;;;;;;9.64;93.72;99807.84;106597;1269;22530;-58
2023/02/21 09:11:35;;;;;;;;;;;;;;;9.69;93.03;99803.20;106589;1277;23028;-60
2023/02/21 09:14:05;;;;;;;;;;;;;;;9.71;92.64;99804.73;106787;1277;22520;-58
2023/02/21 09:16:34;;;;;;;;;;;;;;;9.70;92.88;99814.41;106689;1263;25619;-66
2023/02/21 09:19:05;;;;;;;;;;;;;;;9.65;92.95;99812.56;106642;1277;26586;-58
2023/02/21 09:21:35;;;;;;;;;;;;;;;9.60;93.40;99822.88;106660;1277;23557;-58
2023/02/21 09:24:05;;;;;;;;;;;;;;;9.57;93.62;99820.50;106616;1270;22507;-57
2023/02/21 09:26:34;;;;;;;;;;;;;;;9.56;93.53;99817.27;106644;1274;22506;-60
2023/02/21 09:29:04;;;;;;;;;;;;;;;9.57;93.71;99816.65;106590;1275;22511;-59
2023/02/21 09:31:33;;;;;;;;;;;;;;;9.60;93.32;99819.54;106554;1277;22596;-58
2023/02/21 09:34:03;;;;;;;;;;;;;;;9.63;93.00;99820.29;106703;1277;22511;-58
2023/02/21 09:36:35;;;;;;;;;;;;;;;9.66;92.77;99815.33;106689;1277;24259;-59
2023/02/21 09:39:05;;;;;;;;;;;;;;;9.71;92.43;99818.23;106673;1272;23671;-59
2023/02/21 09:41:35;;;;;;;;;;;;;;;9.77;91.85;99821.52;106565;1269;25482;-60
2023/02/21 09:44:06;;;;;;;;;;;;;;;9.83;91.34;99825.52;106571;1271;22503;-59
2023/02/21 09:46:39;;;;;;;;;;;;;;;9.88;90.70;99832.23;106727;1275;22515;-58
2023/02/21 09:49:12;;;;;;;;;;;;;;;9.92;90.33;99835.27;106732;1271;24872;-59
2023/02/21 09:51:42;;;;;;;;;;;;;;;9.95;89.47;99841.05;106678;1277;24239;-59
2023/02/21 09:54:18;;;;;;;;;;;;;;;9.99;89.35;99836.08;106634;1277;25363;-59
2023/02/21 09:56:47;;;;;;;;;;;;;;;10.02;89.49;99836.20;106614;1277;25353;-58
2023/02/21 09:59:17;;;;;;;;;;;;;;;10.06;89.45;99843.91;106636;1277;24249;-60
2023/02/21 10:01:56;;;;;;;;;;;;;;;10.10;88.56;99838.38;106794;1274;25651;-60
2023/02/21 10:04:31;;;;;;;;;;;;;;;10.14;86.83;99857.14;106657;1272;22543;-58
2023/02/21 10:07:03;;;;;;;;;;;;;;;10.17;86.70;99860.06;106782;1277;22513;-62
2023/02/21 10:09:38;;;;;;;;;;;;;;;10.20;87.12;99853.26;106584;1271;24244;-60
2023/02/21 10:12:12;;;;;;;;;;;;;;;10.24;86.62;99853.17;106709;1268;23280;-60
2023/02/21 10:15:00;;;;;;;;;;;;;;;10.27;86.23;99851.09;106744;1273;25982;-59
2023/02/21 10:17:34;;;;;;;;;;;;;;;10.35;86.08;99860.98;106625;1275;22621;-60
2023/02/21 10:20:09;;;;;;;;;;;;;;;10.49;85.50;99861.88;106761;1258;24280;-58
2023/02/21 10:22:39;;;;;;;;;;;;;;;10.57;83.53;99865.45;106551;1273;24068;-59
2023/02/21 10:25:19;;;;;;;;;;;;;;;10.64;83.58;99859.68;106666;1270;22524;-58
2023/02/21 10:27:50;;;;;;;;;;;;;;;10.70;81.93;99866.21;106702;1277;22514;-56
2023/02/21 10:30:24;;;;;;;;;;;;;;;10.72;82.89;99862.27;106568;1277;24252;-60
2023/02/21 10:32:54;;;;;;;;;;;;;;;10.71;82.00;99851.40;106522;1277;25268;-58
2023/02/21 10:35:23;;;;;;;;;;;;;;;10.68;82.12;99854.27;106645;1262;24761;-59
2023/02/21 10:37:55;;;;;;;;;;;;;;;10.66;82.29;99859.56;106626;1277;22528;-59
2023/02/21 10:40:28;;;;;;;;;;;;;;;10.68;83.15;99862.92;106699;1269;22648;-59
2023/02/21 10:43:01;;;;;;;;;;;;;;;10.72;83.32;99859.07;106712;1277;22510;-59
2023/02/21 10:45:34;;;;;;;;;;;;;;;10.76;81.96;99862.92;106936;1275;22514;-60
2023/02/21 10:48:05;;;;;;;;;;;;;;;10.78;82.20;99868.75;106901;1275;24292;-61
2023/02/21 10:50:38;;;;;;;;;;;;;;;10.79;81.57;99872.05;106940;1270;22512;-60
2023/02/21 10:53:08;;;;;;;;;;;;;;;10.79;82.37;99880.21;106935;1275;24213;-60
2023/02/21 10:55:37;;;;;;;;;;;;;;;10.78;81.62;99875.49;106848;1272;24212;-59
2023/02/21 10:58:09;;;;;;;;;;;;;;;10.75;82.06;99879.21;107007;1277;22508;-61
2023/02/21 11:00:39;;;;;;;;;;;;;;;10.73;82.02;99879.19;106971;1277;25288;-58
2023/02/21 11:03:30;;;;;;;;;;;;;;;10.71;82.30;99883.13;106867;1277;26601;-60
2023/02/21 11:06:00;;;;;;;;;;;;;;;10.71;81.81;99888.10;106798;1277;22507;-65
2023/02/21 11:08:36;;;;;;;;;;;;;;;10.72;82.48;99890.70;106886;1275;22511;-60
2023/02/21 11:11:07;;;;;;;;;;;;;;;10.71;83.05;99897.80;106869;1270;22512;-60
2023/02/21 11:13:36;;;;;;;;;;;;;;;10.67;84.15;99895.30;106888;1277;22507;-58
2023/02/21 11:16:10;;;;;;;;;;;;;;;10.62;84.49;99895.45;106915;1277;23018;-61
2023/02/21 11:18:39;;;;;;;;;;;;;;;10.56;84.73;99902.89;106844;1277;22508;-60
2023/02/21 11:21:13;;;;;;;;;;;;;;;10.49;84.93;99904.86;106778;1277;22507;-59
2023/02/21 11:23:47;;;;;;;;;;;;;;;10.42;85.31;99908.27;106921;1275;25415;-60
2023/02/21 11:26:16;;;;;;;;;;;;;;;10.40;85.63;99908.85;106965;1277;23048;-60
2023/02/21 11:28:47;;;;;;;;;;;;;;;10.41;85.91;99911.45;106967;1275;22516;-61
2023/02/21 11:31:22;;;;;;;;;;;;;;;10.43;85.96;99901.68;107043;1270;23917;-60
2023/02/21 11:33:55;;;;;;;;;;;;;;;10.48;85.58;99904.13;106953;1277;22635;-60
2023/02/21 11:36:27;;;;;;;;;;;;;;;10.49;85.16;99897.65;106901;1277;22665;-58
2023/02/21 11:39:04;;;;;;;;;;;;;;;10.51;85.00;99904.13;106988;1273;25415;-65
2023/02/21 11:41:38;;;;;;;;;;;;;;;10.57;84.73;99903.60;106823;1271;22480;-61
2023/02/21 11:44:20;;;;;;;;;;;;;;;10.62;83.94;99905.64;106921;1275;22510;-58
2023/02/21 11:46:52;;;;;;;;;;;;;;;10.69;83.85;99899.64;106862;1269;25399;-60
2023/02/21 11:49:24;;;;;;;;;;;;;;;10.72;83.28;99899.09;106952;1271;22519;-60
2023/02/21 11:51:57;;;;;;;;;;;;;;;10.76;83.31;99898.30;106836;1277;22511;-61
2023/02/21 11:54:29;;;;;;;;;;;;;;;10.82;83.54;99901.54;107085;1274;22769;-60
2023/02/21 11:57:02;;;;;;;;;;;;;;;10.88;83.23;99900.21;106946;1277;24204;-59
2023/02/21 11:59:39;;;;;;;;;;;;;;;10.94;82.46;99909.36;107024;1275;22510;-60
2023/02/21 12:02:22;;;;;;;;;;;;;;;10.98;81.56;99910.97;106963;1270;22504;-60
2023/02/21 12:05:02;;;;;;;;;;;;;;;10.97;79.13;99913.81;106611;1277;22509;-59
2023/02/21 12:07:37;;;;;;;;;;;;;;;10.91;78.97;99904.10;106881;1277;24189;-61
2023/02/21 12:10:20;;;;;;;;;;;;;;;10.88;78.96;99907.16;106957;1263;22507;-61
2023/02/21 12:12:57;;;;;;;;;;;;;;;10.85;78.84;99905.89;106924;1277;23873;-61
2023/02/21 12:15:31;;;;;;;;;;;;;;;10.82;79.08;99912.35;107213;1262;23217;-59
2023/02/21 12:18:19;;;;;;;;;;;;;;;10.79;79.26;99916.52;106880;1277;25255;-59
2023/02/21 12:20:57;;;;;;;;;;;;;;;10.75;79.03;99917.84;106785;1273;22516;-58
2023/02/21 12:23:35;;;;;;;;;;;;;;;10.74;79.83;99912.45;106918;1271;22515;-59
2023/02/21 12:26:17;;;;;;;;;;;;;;;10.73;79.21;99926.10;106874;1275;22524;-60
2023/02/21 12:28:54;;;;;;;;;;;;;;;10.72;80.23;99919.48;106932;1274;25396;-60
2023/02/21 12:31:30;;;;;;;;;;;;;;;10.71;80.05;99915.51;107051;1272;24286;-60
2023/02/21 12:34:07;;;;;;;;;;;;;;;10.70;80.39;99908.90;106948;1277;25289;-62
2023/02/21 12:36:44;;;;;;;;;;;;;;;10.71;80.18;99900.94;106966;1277;23016;-58
2023/02/21 12:39:24;;;;;;;;;;;;;;;10.72;80.31;99897.05;106815;1277;22717;-58
2023/02/21 12:42:10;;;;;;;;;;;;;;;10.72;79.71;99907.35;106890;1275;22510;-60
2023/02/21 12:44:47;;;;;;;;;;;;;;;10.70;78.42;99909.11;107072;1262;23898;-61
2023/02/21 12:47:20;;;;;;;;;;;;;;;10.71;78.10;99914.19;106901;1275;23909;-61
2023/02/21 12:49:51;;;;;;;;;;;;;;;10.74;78.77;99907.02;106883;1277;22642;-59
2023/02/21 12:52:24;;;;;;;;;;;;;;;10.78;79.08;99912.31;106802;1272;22511;-59
2023/02/21 12:54:59;;;;;;;;;;;;;;;10.80;77.78;99909.95;106905;1277;22469;-60
2023/02/21 12:57:33;;;;;;;;;;;;;;;10.86;76.96;99904.42;106933;1273;22514;-61
2023/02/21 13:00:16;;;;;;;;;;;;;;;10.91;76.34;99892.09;106898;1268;25410;-61
2023/02/21 13:02:52;;;;;;;;;;;;;;;10.96;76.66;99890.73;106803;1270;24157;-60
2023/02/21 13:05:26;;;;;;;;;;;;;;;11.00;76.41;99897.09;106724;1278;22623;-59
2023/02/21 13:08:00;;;;;;;;;;;;;;;11.02;75.72;99897.56;106783;1275;22508;-60
2023/02/21 13:10:32;;;;;;;;;;;;;;;11.01;74.59;99905.33;106909;1277;22514;-61
2023/02/21 13:13:07;;;;;;;;;;;;;;;11.01;74.04;99899.67;106824;1277;26532;-59
2023/02/21 13:15:37;;;;;;;;;;;;;;;11.01;74.48;99895.77;106949;1277;23016;-64
2023/02/21 13:18:08;;;;;;;;;;;;;;;11.02;73.66;99900.15;106829;1262;22511;-60
2023/02/21 13:20:40;;;;;;;;;;;;;;;11.04;72.71;99897.34;106955;1267;22466;-59
2023/02/21 13:26:07;;;;;;;;;;;;;;;11.02;71.74;99903.30;106824;1277;22560;-61
2023/02/21 13:28:37;;;;;;;;;;;;;;;11.00;71.82;99897.49;106954;1270;22689;-59
2023/02/21 13:31:17;;;;;;;;;;;;;;;11.00;72.05;99902.88;106826;1277;24247;-61
2023/02/21 13:33:49;;;;;;;;;;;;;;;11.01;71.61;99900.64;106705;1269;22511;-61
2023/02/21 13:36:22;;;;;;;;;;;;;;;11.02;72.11;99900.88;107000;1277;22566;-59
2023/02/21 13:39:02;;;;;;;;;;;;;;;11.07;72.37;99895.85;106778;1275;25460;-60
2023/02/21 13:41:34;;;;;;;;;;;;;;;11.10;72.23;99904.32;106851;1275;23925;-60
2023/02/21 13:44:08;;;;;;;;;;;;;;;11.15;72.05;99898.73;106833;1277;22500;-61
2023/02/21 13:47:06;;;;;;;;;;;;;;;11.20;72.37;99900.11;106859;1270;25262;-60
2023/02/21 13:49:40;;;;;;;;;;;;;;;11.25;71.90;99894.02;106573;1281;22523;-59
2023/02/21 13:52:25;;;;;;;;;;;;;;;11.24;71.78;99901.23;106512;1281;22636;-60
2023/02/21 13:55:23;;;;;;;;;;;;;;;11.20;71.82;99907.63;106483;1281;25522;-61
2023/02/21 13:58:12;;;;;;;;;;;;;;;11.16;72.30;99909.46;106299;1285;22532;-60
2023/02/21 14:00:48;;;;;;;;;;;;;;;11.15;72.52;99901.37;106186;1284;25413;-60
2023/02/21 14:03:32;;;;;;;;;;;;;;;11.15;72.28;99895.59;106317;1285;24511;-59
2023/02/21 14:06:24;;;;;;;;;;;;;;;11.16;72.52;99903.63;106267;1284;22648;-59
2023/02/21 14:09:00;;;;;;;;;;;;;;;11.22;72.97;99895.70;106195;1285;22638;-62
2023/02/21 14:11:31;;;;;;;;;;;;;;;11.30;73.37;99894.47;106218;1282;22534;-61
2023/02/21 14:14:02;;;;;;;;;;;;;;;11.37;72.61;99898.56;106327;1284;22521;-60
2023/02/21 14:16:33;;;;;;;;;;;;;;;11.43;72.64;99891.86;106534;1273;22905;-59
2023/02/21 14:19:06;;;;;;;;;;;;;;;11.46;72.15;99900.58;106316;1284;22731;-61
2023/02/21 14:21:36;;;;;;;;;;;;;;;11.46;71.68;99898.61;106278;1284;24242;-60
2023/02/21 14:24:12;;;;;;;;;;;;;;;11.45;71.62;99899.80;106462;1279;22598;-61
2023/02/21 14:26:43;;;;;;;;;;;;;;;11.43;71.88;99903.40;106490;1281;25485;-60
2023/02/21 14:29:27;;;;;;;;;;;;;;;11.42;71.36;99901.92;106517;1278;25181;-60
2023/02/21 14:31:58;;;;;;;;;;;;;;;11.39;71.12;99910.42;106767;1277;22513;-60
2023/02/21 14:34:37;;;;;;;;;;;;;;;11.35;70.43;99914.69;106995;1271;22548;-59
2023/02/21 14:37:13;;;;;;;;;;;;;;;11.28;70.47;99921.17;106921;1277;22964;-61
2023/02/21 14:39:44;;;;;;;;;;;;;;;11.21;70.73;99919.63;106843;1275;22520;-59
2023/02/21 14:42:24;;;;;;;;;;;;;;;11.16;70.98;99926.32;106845;1277;24882;-59
2023/02/21 14:45:05;;;;;;;;;;;;;;;11.10;71.57;99926.35;106880;1275;26534;-60
2023/02/21 14:47:41;;;;;;;;;;;;;;;11.06;71.63;99923.26;106951;1277;24217;-61
2023/02/21 14:50:16;;;;;;;;;;;;;;;11.03;71.77;99931.34;106888;1275;23144;-61
2023/02/21 14:53:02;;;;;;;;;;;;;;;11.00;72.17;99928.22;106833;1277;22565;-62
2023/02/21 14:55:49;;;;;;;;;;;;;;;10.97;72.29;99939.65;106874;1277;24297;-61
2023/02/21 14:58:34;;;;;;;;;;;;;;;10.92;72.34;99936.86;106899;1270;22521;-62
2023/02/21 15:01:08;;;;;;;;;;;;;;;10.86;72.52;99938.35;106766;1277;22530;-61
2023/02/21 15:03:42;;;;;;;;;;;;;;;10.78;72.02;99938.70;106932;1277;22507;-60
2023/02/21 15:06:17;;;;;;;;;;;;;;;10.71;71.61;99936.98;106896;1268;22509;-60
2023/02/21 15:08:47;;;;;;;;;;;;;;;10.66;71.61;99939.59;106925;1272;25688;-61
2023/02/21 15:11:21;;;;;;;;;;;;;;;10.59;71.51;99938.70;106872;1275;22511;-60
2023/02/21 15:14:10;;;;;;;;;;;;;;;10.54;71.86;99938.52;106799;1277;22520;-60
2023/02/21 15:16:42;;;;;;;;;;;;;;;10.48;72.11;99935.41;106711;1271;22520;-59
2023/02/21 15:19:19;;;;;;;;;;;;;;;10.44;71.60;99939.55;106828;1275;22517;-61
2023/02/21 15:21:48;;;;;;;;;;;;;;;10.43;70.86;99933.64;106778;1278;24758;-60
2023/02/21 15:24:18;;;;;;;;;;;;;;;10.41;71.15;99940.11;106681;1278;22525;-60
2023/02/21 15:26:47;;;;;;;;;;;;;;;10.40;71.21;99942.64;106658;1278;22516;-61
2023/02/21 15:29:17;;;;;;;;;;;;;;;10.40;70.99;99941.06;106745;1272;22467;-60